Terminal Aerodrome Forecast
Issued by NWS

Home | Current Version | Previous Version | Text Only | Print | Product List | Glossary On
Versions: 1 2 3 4 5 6 7 8 9 10 11 12 13 14 15 16 17 18 19
825
FTUS42 KMLB 191153 AAA
TAFLEE
TAF AMD
KLEE 191153Z 1912/2012 VRB03KT 6SM BR BKN250
      TEMPO 1912/1913 2SM BR
     FM191500 20004KT P6SM FEW045 SCT250=

USA.gov is the U.S. government's official web portal to all federal, state and local government web resources and services.